Aktualne dane pomiarowe

Uwaga, wersja testowa! Automatyczne pobieranie danych za pomocą narzędzi lub skryptów to umożliwiających jest zabronione.

Dane meteo z obszaru Polski uzyskane na podstawie depesz SYNOP pobieranych co godzinę z NWS. Najedź myszką na symbol przedstawiony w tabeli, aby uzyskać informacje co do jego znaczenia. Prosimy pamiętać, że to testowa wersja strony, która jeszcze nie jest ukończona. Stworzono również jest krótki FAQ dotyczący korzystania z tej podstrony Anomalie temperatury w chwili obecnej odniesione są do okresu referencyjnego 1951-2016. Okres ten będzie później zmieniony na 1981-2010. Kliknij ikonę aby pobrać plik CSV. Kliknij ikonę aby wygenerować mapę synoptyczną dla danego terminu.

Wybierz Datę:    

        

Kraków-Balice (12566)

Dane terminowe dla wybranej stacji. Kliknij datę, aby otrzymać dane z tego terminu dla wszystkich stacji.

TemperaturaZachmurzenieWiatrCiśnienieOpadyPogoda
 Data t td wb tx tn tg rh  Nt Nl Cl Cm Ch ws wd g1 g2 wx mslp ppp ch 24h 12h t ww ww w1 w2  
2019-08-08 23:00:00 16.6 14.2 14.9--- 8625.0wx-wx1wx--11014.4 985.9 0.7---------
2019-08-08 22:00:00 17.4 14.5 15.4--- 8325.0wx-wx1wx--11014.3 985.9 0.9---------
2019-08-08 21:00:00 18.1 14.4 15.6--- 7935.0wx-wx1wx--11013.7 985.4 0.7---------
2019-08-08 20:00:00 19.1 14.4 16.0--- 7440.0wx-wx1wx---1013.4 985.2 0.7---------
2019-08-08 19:00:00 20.8 13.7 16.2--- 6440.0wx-wxwx1wx--11013.0 985.0 0.6---------
2019-08-08 18:00:00 22.6 13.4 16.8 25.7 18.1- 5640.0wx-wx2wx--21012.5 984.7 0.2- 0.012------
2019-08-08 17:00:00 24.2 12.2 16.9--- 4750.0wxwxwxwx3wx--31012.2 984.5 -0.2---------
2019-08-08 16:00:00 25.1 12.7 17.5--- 4650.0wxwxwxwx3wx---1012.0 984.4 -0.4---------
2019-08-08 15:00:00 25.4 11.2 16.9--- 4150.0wxwxwxwx5wx---1012.1 984.5 -0.5---------
2019-08-08 14:00:00 25.4 11.2 16.9--- 4150.0wxwxwxwx6wx--61012.3 984.7 -0.1---------
2019-08-08 13:00:00 25.0 12.6 17.4--- 4650.0wxwxwxwx5wx--51012.4 984.8 0.2---------
2019-08-08 12:00:00 23.9 13.4 17.3--- 5250.0wxwxwxwx5wx--51012.7 985.0 0.6- 0.06------
2019-08-08 11:00:00 23.8 14.2 17.7--- 5540.0wxwxwxwx4wx--41012.5 984.8 0.5---------
2019-08-08 10:00:00 22.6 15.2 17.8--- 6340.0wxwxwx4wx--41012.4 984.6 0.9---------
2019-08-08 09:00:00 21.2 17.0 18.3--- 7740.0wxwxwx5wx--51012.4 984.4 1.1---------
2019-08-08 08:00:00 20.0 16.2 17.4--- 7940.0wxwxwxwx6wx--61012.4 984.3 2.0---------
2019-08-08 07:00:00 19.5 16.9 17.7--- 8540.0wxwxwxwx6wx--61011.8 983.7 2.2---------
2019-08-08 06:00:00 18.2 16.2 16.8 22.6 17.6 16 8840.0wxwxwx6wx--61011.5 983.3 2.8 15.7 12.012wx-w1w2--
2019-08-08 05:00:00 18.0 16.7 17.1--- 9250.0wxwxwxwx7wx---1010.5 982.3 2.1---------
2019-08-08 04:00:00 17.6 17.0 17.2--- 9650.0wxwxwx6wx---1009.7 981.5 1.4---wx---
2019-08-08 03:00:00 18.1 17.6 17.7--- 975.0wxwxwx8wx--81008.7 980.5 0.7---wx-w1w2--
2019-08-08 02:00:00 18.3 18.1 18.1--- 996.0wxwxwx5wx--51008.3 980.2 0.8---wx-w1--
2019-08-08 01:00:00 18.5 18.2 18.3--- 987.0wxwxwx3wx--31008.2 980.1 0.9---wx-w1w2--
2019-08-08 00:00:00 19.3 17.6 18.1--- 906.0wxwxwx4wx--41007.8 979.8 1.1- 0.06wx-w1--
2019-08-07 23:00:00 20.3 18.1 18.7--- 8740.0wxwxwxwx4wx--41007.3 979.4 0.5---wx---
2019-08-07 22:00:00 20.6 18.2 18.9--- 8640.0wxwxwxwx2wx--21007.1 979.2 0.0---------
2019-08-07 21:00:00 19.5 18.0 18.4--- 9140.0wx-wxwx1wx--11006.7 978.7 -0.8---------
2019-08-07 20:00:00 20.9 18.3 19.0--- 8540.0wx-wx0----1006.7 978.9 -0.6---------
2019-08-07 19:00:00 21.2 18.2 19.1--- 8350.0wxwxwxwx2wx---1007.0 979.2 -0.3---------
2019-08-07 18:00:00 22.6 18.4 19.7 29.2 22.4- 7750.0wxwxwxwx2wx--21007.2 979.5 -0.2- 4.012wx-w1--
2019-08-07 17:00:00 23.9 18.5 20.2--- 7250.0wxwxwxwx2wx--21007.1 979.5 -0.6---------
2019-08-07 16:00:00 25.7 19.1 21.2--- 6750.0wxwxwxwx1wx--11006.9 979.5 -1.2---------
2019-08-07 15:00:00 25.1 18.8 20.8--- 6840.0wxwxwxwx5wx--51007.2 979.7 -1.2---------
2019-08-07 14:00:00 26.1 19.2 21.4--- 6640.0wxwxwxwxwx4wx---1007.5 980.1 -0.5---------
2019-08-07 13:00:00 25.9 20.0 21.8--- 7040.0wxwxwxwxwx1wx--11008.1 980.7 -0.4---wx---
2019-08-07 12:00:00 23.2 20.2 21.0--- 8330.0wxwxwxwx1wx--11008.6 980.9 -0.7- 2.06wx-w1--
2019-08-07 11:00:00 27.4 17.0 20.6--- 5340.0wxwxwxwx5wx--51007.9 980.6 -1.1---wx---
2019-08-07 10:00:00 28.8 16.4 20.8--- 4730.0wxwxwxwxwx5wx--51008.3 981.1 -0.7---------
2019-08-07 09:00:00 27.1 18.1 21.1--- 5840.0wxwxwxwx3wx--31008.9 981.6 -0.3---------
2019-08-07 08:00:00 26.2 17.6 20.5--- 5940.0wx-wxwx2wx--21009.1 981.7 -0.5---------
2019-08-07 07:00:00 24.4 16.9 19.4--- 6340.0wx-wxwx1wx--11009.4 981.8 -0.5---------
2019-08-07 06:00:00 22.4 16.9 18.7 24.2 16.1 14 7140.0wx-wxwx0---01009.7 981.9 -0.4- 0.012------
2019-08-07 05:00:00 19.6 17.0 17.8--- 8530.0wx-wxwx0---01010.3 982.2 0.0---------
2019-08-07 04:00:00 16.6 16.1 16.2--- 9720.0wx-wx1wx---1010.7 982.3 -0.3---------
2019-08-07 03:00:00 16.5 15.5 15.8--- 9420.0wx-wx1wx--11010.7 982.3 -0.5---------
2019-08-07 02:00:00 17.2 15.9 16.3--- 9220.0wx-wx0---01010.5 982.2 -0.5---------
2019-08-07 01:00:00 17.9 15.5 16.2--- 8620.0wxwxwxwx0---01010.8 982.6 -0.3---------
2019-08-07 00:00:00 18.6 16.4 17.0--- 8730.0wx-wxwx2wx--21011.0 982.8 0.0- 0.06------
1.1 ms

 

Print Friendly, PDF & Email